Terminal Aerodrome Forecast
Issued by NWS North Platte, NE

Home | Current Version | Previous Version | Graphics & Text | Print | Product List | Glossary On
Versions: 1 2 3 4 5 6 7 8 9 10 11 12 13
000
FTUS43 KLBF 191720
TAFVTN
TAF
KVTN 191720Z 1918/2018 20014KT P6SM BKN250
     FM200000 17012G18KT P6SM BKN200
     FM200100 17011KT P6SM BKN200
     FM200400 18012G18KT P6SM BKN200
     FM200700 19011KT P6SM BKN200
     FM200900 22008KT P6SM BKN120
     FM201000 25008KT P6SM BKN120
     FM201400 30011G20KT P6SM SCT100=

USA.gov is the U.S. government's official web portal to all federal, state and local government web resources and services.